Time;durP1;ratioP1;P1;durP2;ratioP2;P2;SDS_P1;SDS_P2;PMS_P1;PMS_P2;Temp;Humidity;BMP_temperature;BMP_pressure;BME280_temperature;BME280_humidity;BME280_pressure;Samples;Min_cycle;Max_cycle;Signal;HPM_P1;HPM_P2
2022/08/19 00:00:24;;;;;;;6.03;2.03;;;26.00;61.30;;;;;;4994165;28;20033;-69
2022/08/19 00:02:50;;;;;;;3.55;1.92;;;26.00;61.40;;;;;;4994591;28;20061;-69
2022/08/19 00:05:15;;;;;;;2.85;1.58;;;26.00;61.30;;;;;;4994411;28;20090;-69
2022/08/19 00:07:42;;;;;;;3.38;1.85;;;26.00;61.20;;;;;;4994750;28;20026;-68
2022/08/19 00:10:11;;;;;;;5.82;2.53;;;26.00;61.40;;;;;;4977083;28;20030;-68
2022/08/19 00:12:37;;;;;;;3.53;1.70;;;25.90;61.60;;;;;;4993950;28;20034;-69
2022/08/19 00:15:06;;;;;;;3.85;1.80;;;25.90;61.40;;;;;;4994174;28;20031;-69
2022/08/19 00:17:32;;;;;;;6.05;2.03;;;26.00;61.10;;;;;;4994008;28;20030;-70
2022/08/19 00:19:57;;;;;;;5.82;2.45;;;26.00;61.60;;;;;;4994257;28;20495;-69
2022/08/19 00:22:23;;;;;;;7.70;1.77;;;26.00;62.00;;;;;;4993651;28;20038;-69
2022/08/19 00:24:49;;;;;;;6.05;1.88;;;26.00;62.50;;;;;;4996926;28;20018;-69
2022/08/19 00:27:14;;;;;;;5.32;2.13;;;26.00;62.90;;;;;;4993833;28;20037;-71
2022/08/19 00:29:40;;;;;;;5.05;1.80;;;26.00;63.00;;;;;;4993586;28;20037;-69
2022/08/19 00:32:06;;;;;;;5.57;2.05;;;25.90;63.80;;;;;;4993678;28;20034;-69
2022/08/19 00:34:32;;;;;;;6.60;2.60;;;25.80;63.90;;;;;;4995963;28;20031;-69
2022/08/19 00:36:58;;;;;;;3.40;1.75;;;25.80;64.60;;;;;;4993717;28;20386;-69
2022/08/19 00:39:24;;;;;;;4.93;1.90;;;25.70;65.10;;;;;;4993163;28;20027;-69
2022/08/19 00:41:51;;;;;;;2.60;1.63;;;25.70;66.00;;;;;;4993217;28;20477;-69
2022/08/19 00:44:21;;;;;;;5.30;2.08;;;25.60;66.90;;;;;;4993008;28;20027;-71
2022/08/19 00:46:49;;;;;;;3.38;1.98;;;25.60;67.00;;;;;;4993633;28;20030;-69
2022/08/19 00:49:23;;;;;;;3.78;1.67;;;25.60;67.00;;;;;;4993125;28;20109;-69
2022/08/19 00:52:11;;;;;;;5.53;1.70;;;25.50;67.90;;;;;;4993626;28;20130;-69
2022/08/19 00:54:38;;;;;;;5.85;1.63;;;25.50;68.50;;;;;;4993115;28;20402;-69
2022/08/19 00:57:08;;;;;;;4.22;1.90;;;25.50;68.50;;;;;;4993390;28;20038;-68
2022/08/19 00:59:36;;;;;;;9.85;1.92;;;25.40;69.10;;;;;;4993155;28;20032;-68
2022/08/19 01:02:03;;;;;;;7.47;1.70;;;25.40;69.40;;;;;;4993323;28;20430;-69
2022/08/19 01:04:28;;;;;;;3.75;2.22;;;25.40;68.80;;;;;;4993388;28;20058;-68
2022/08/19 01:06:56;;;;;;;3.92;1.70;;;25.40;70.10;;;;;;4993537;28;20072;-68
2022/08/19 01:09:22;;;;;;;4.05;1.83;;;25.40;70.60;;;;;;4993061;28;20035;-68
2022/08/19 01:11:48;;;;;;;5.85;1.80;;;25.50;71.10;;;;;;4993485;28;20376;-68
2022/08/19 01:14:15;;;;;;;2.95;1.80;;;25.50;71.20;;;;;;4994146;28;20050;-69
2022/08/19 01:16:41;;;;;;;5.80;1.85;;;25.40;72.60;;;;;;4993804;28;20054;-68
2022/08/19 01:19:18;;;;;;;4.05;1.60;;;25.40;72.50;;;;;;4994103;28;20031;-68
2022/08/19 01:22:02;;;;;;;6.20;2.30;;;25.40;72.50;;;;;;4993599;28;20034;-68
2022/08/19 01:24:28;;;;;;;2.63;1.75;;;25.30;72.90;;;;;;4975814;28;20030;-68
2022/08/19 01:26:54;;;;;;;4.85;1.80;;;25.30;73.60;;;;;;4992986;28;20113;-68
2022/08/19 01:29:20;;;;;;;6.78;2.08;;;25.30;73.70;;;;;;4993653;28;20038;-70
2022/08/19 01:31:46;;;;;;;2.60;1.90;;;25.30;73.40;;;;;;4993339;28;20019;-68
2022/08/19 01:34:11;;;;;;;5.50;2.20;;;25.30;74.70;;;;;;4993288;28;20372;-68
2022/08/19 01:36:41;;;;;;;3.58;1.50;;;25.20;73.90;;;;;;4992790;28;20026;-70
2022/08/19 01:39:11;;;;;;;1.90;1.67;;;25.20;74.50;;;;;;4994134;28;20031;-70
2022/08/19 01:41:37;;;;;;;2.58;1.60;;;25.10;75.00;;;;;;4997691;28;20034;-70
2022/08/19 01:44:06;;;;;;;3.95;2.05;;;25.00;75.30;;;;;;4997635;28;20045;-70
2022/08/19 01:46:31;;;;;;;2.83;1.50;;;25.00;75.10;;;;;;4997027;28;20033;-70
2022/08/19 01:48:58;;;;;;;5.25;1.67;;;25.10;74.20;;;;;;4997432;28;20034;-70
2022/08/19 01:51:24;;;;;;;5.90;1.98;;;25.10;74.10;;;;;;4997312;28;20088;-70
2022/08/19 01:53:51;;;;;;;5.32;1.52;;;25.10;74.40;;;;;;4997891;28;20034;-69
2022/08/19 01:56:17;;;;;;;4.00;1.73;;;25.10;74.60;;;;;;4997562;28;20030;-69
2022/08/19 01:58:50;;;;;;;3.83;1.75;;;25.10;74.50;;;;;;4996847;28;20468;-69
2022/08/19 02:01:16;;;;;;;4.10;1.50;;;25.10;74.10;;;;;;4997561;28;20027;-69
2022/08/19 02:03:42;;;;;;;3.10;1.63;;;25.10;74.60;;;;;;4997009;28;20035;-69
2022/08/19 02:06:08;;;;;;;2.25;1.63;;;25.10;75.40;;;;;;5004552;28;20481;-69
2022/08/19 02:08:36;;;;;;;2.97;1.95;;;25.00;73.20;;;;;;5016812;28;20065;-69
2022/08/19 02:11:03;;;;;;;2.80;1.77;;;25.00;71.90;;;;;;5017314;28;20030;-69
2022/08/19 02:13:30;;;;;;;3.25;1.65;;;24.90;71.80;;;;;;5016737;28;20049;-69
2022/08/19 02:15:56;;;;;;;3.47;1.65;;;24.90;72.10;;;;;;4999912;28;20030;-68
2022/08/19 02:18:22;;;;;;;3.10;1.88;;;24.80;71.80;;;;;;5017541;28;20022;-69
2022/08/19 02:20:47;;;;;;;2.05;1.50;;;24.80;70.80;;;;;;5016288;28;20049;-70
2022/08/19 02:23:14;;;;;;;4.90;2.10;;;24.70;70.10;;;;;;5016824;28;20364;-69
2022/08/19 02:25:41;;;;;;;5.53;1.55;;;24.60;69.80;;;;;;5016446;28;20018;-70
2022/08/19 02:28:07;;;;;;;4.72;1.52;;;24.50;70.20;;;;;;5016548;28;20036;-69
2022/08/19 02:30:33;;;;;;;2.25;1.70;;;24.40;69.10;;;;;;5016041;28;20097;-70
2022/08/19 02:32:59;;;;;;;2.30;1.35;;;24.40;69.00;;;;;;5015739;28;20025;-69
2022/08/19 02:35:25;;;;;;;5.43;1.60;;;24.30;69.20;;;;;;5015460;28;20084;-69
2022/08/19 02:40:36;;;;;;;2.33;1.73;;;24.20;69.20;;;;;;5014833;28;20037;-69
2022/08/19 02:43:07;;;;;;;4.05;1.83;;;24.20;70.10;;;;;;5012156;28;20105;-69
2022/08/19 02:45:39;;;;;;;4.55;1.90;;;24.10;70.90;;;;;;5007318;28;20407;-69
2022/08/19 02:48:05;;;;;;;2.42;1.50;;;24.10;71.80;;;;;;4996989;28;20026;-69
2022/08/19 02:50:31;;;;;;;4.43;1.58;;;24.00;72.60;;;;;;4994515;28;20030;-70
2022/08/19 02:52:57;;;;;;;2.40;1.40;;;24.00;73.20;;;;;;5005484;28;20481;-69
2022/08/19 02:55:23;;;;;;;2.30;1.30;;;23.90;74.00;;;;;;5015537;28;20108;-69
2022/08/19 02:57:49;;;;;;;4.03;2.03;;;23.90;74.20;;;;;;5015364;28;20032;-69
2022/08/19 03:00:16;;;;;;;2.70;1.83;;;23.90;74.20;;;;;;5016091;28;20030;-69
2022/08/19 03:02:41;;;;;;;1.80;1.65;;;23.90;73.90;;;;;;5015369;28;20036;-69
2022/08/19 03:05:09;;;;;;;1.83;1.65;;;24.00;74.20;;;;;;5015383;28;20104;-69
2022/08/19 03:07:35;;;;;;;3.00;1.92;;;24.10;74.50;;;;;;5015114;28;20033;-69
2022/08/19 03:10:01;;;;;;;2.33;1.77;;;24.10;74.60;;;;;;5014690;28;20025;-69
2022/08/19 03:12:26;;;;;;;2.45;1.85;;;24.10;74.60;;;;;;5014667;28;20025;-69
2022/08/19 03:14:52;;;;;;;3.17;1.88;;;24.10;74.30;;;;;;5014147;28;20113;-69
2022/08/19 03:17:18;;;;;;;3.03;1.88;;;24.10;74.20;;;;;;5014596;28;20022;-69
2022/08/19 03:19:44;;;;;;;3.70;1.75;;;24.10;76.40;;;;;;5014245;28;20042;-70
2022/08/19 03:22:10;;;;;;;3.55;1.73;;;24.20;77.80;;;;;;5008963;28;20038;-68
2022/08/19 03:24:36;;;;;;;4.65;1.70;;;24.20;78.40;;;;;;5015342;28;20026;-70
2022/08/19 03:27:04;;;;;;;2.80;1.20;;;24.20;79.70;;;;;;5002172;28;20579;-71
2022/08/19 03:29:34;;;;;;;4.05;1.92;;;24.10;80.70;;;;;;5009461;28;20054;-71
2022/08/19 03:32:02;;;;;;;4.43;2.08;;;24.10;80.90;;;;;;5015322;28;20029;-70
2022/08/19 03:34:30;;;;;;;4.05;1.92;;;24.10;81.50;;;;;;5004557;28;20468;-70
2022/08/19 03:36:58;;;;;;;3.38;1.75;;;24.00;82.20;;;;;;5004808;28;20022;-69
2022/08/19 03:39:25;;;;;;;3.70;1.95;;;24.10;81.60;;;;;;5005645;28;20423;-70
2022/08/19 03:41:52;;;;;;;4.00;2.17;;;24.00;81.80;;;;;;5004533;28;20631;-69
2022/08/19 03:44:21;;;;;;;4.43;1.55;;;23.90;82.30;;;;;;5003174;28;20068;-69
2022/08/19 03:46:51;;;;;;;2.55;1.85;;;23.90;82.70;;;;;;4995491;28;20030;-69
2022/08/19 03:49:18;;;;;;;4.40;1.90;;;23.90;82.60;;;;;;4996055;28;20026;-69
2022/08/19 03:51:45;;;;;;;4.15;1.88;;;23.80;83.40;;;;;;4995206;28;20114;-70
2022/08/19 03:54:13;;;;;;;4.70;2.45;;;23.80;83.40;;;;;;4995969;28;20026;-69
2022/08/19 03:56:41;;;;;;;2.83;1.92;;;23.80;83.50;;;;;;4995722;28;20030;-70
2022/08/19 03:59:11;;;;;;;3.50;1.67;;;23.70;83.80;;;;;;4995190;28;20029;-69
2022/08/19 04:01:37;;;;;;;5.80;2.00;;;23.70;83.40;;;;;;4994446;28;20491;-68
2022/08/19 04:04:03;;;;;;;2.55;2.00;;;23.80;83.20;;;;;;4993918;28;20042;-69
2022/08/19 04:06:33;;;;;;;4.65;1.83;;;23.80;82.70;;;;;;4994631;28;20098;-69
2022/08/19 04:09:01;;;;;;;6.70;2.13;;;23.80;82.90;;;;;;4995697;28;20116;-69
2022/08/19 04:11:29;;;;;;;3.30;1.67;;;23.90;82.50;;;;;;4995651;28;20042;-70
2022/08/19 04:13:56;;;;;;;5.07;1.58;;;23.90;82.40;;;;;;4994557;28;20034;-69
2022/08/19 04:16:28;;;;;;;5.63;2.47;;;23.90;82.20;;;;;;4997909;28;20030;-69
2022/08/19 04:18:54;;;;;;;3.60;1.75;;;23.90;82.10;;;;;;4994307;28;20034;-69
2022/08/19 04:21:23;;;;;;;3.65;1.92;;;23.90;82.30;;;;;;4994352;28;20030;-68
2022/08/19 04:23:49;;;;;;;10.30;1.75;;;23.90;82.10;;;;;;4993926;28;20039;-69
2022/08/19 04:26:19;;;;;;;7.32;2.35;;;23.90;82.30;;;;;;4993682;28;20022;-68
2022/08/19 04:28:45;;;;;;;3.92;1.80;;;24.00;82.20;;;;;;4993225;28;20356;-68
2022/08/19 04:31:16;;;;;;;4.38;1.80;;;24.00;82.40;;;;;;4993935;28;20110;-69
2022/08/19 04:33:42;;;;;;;2.80;1.50;;;24.00;82.40;;;;;;4993500;28;20418;-68
2022/08/19 04:36:09;;;;;;;5.30;1.83;;;24.10;82.20;;;;;;4993556;28;20026;-69
2022/08/19 04:38:35;;;;;;;4.60;1.77;;;24.10;82.30;;;;;;4996443;28;20031;-72
2022/08/19 04:43:48;;;;;;;4.07;1.90;;;24.20;82.00;;;;;;4993104;28;20148;-69
2022/08/19 04:46:14;;;;;;;2.85;1.65;;;24.40;81.50;;;;;;4993544;28;20114;-68
2022/08/19 04:48:40;;;;;;;3.80;2.20;;;24.40;81.30;;;;;;4992523;28;20108;-68
2022/08/19 04:51:09;;;;;;;3.38;1.75;;;24.50;81.30;;;;;;4994183;28;20105;-69
2022/08/19 04:53:37;;;;;;;5.43;2.65;;;24.50;81.70;;;;;;4994808;28;20026;-69
2022/08/19 04:56:14;;;;;;;3.95;1.77;;;24.50;82.20;;;;;;4995761;28;20093;-70
2022/08/19 04:58:43;;;;;;;5.25;2.28;;;24.60;81.40;;;;;;4995662;28;20121;-70
2022/08/19 05:01:12;;;;;;;3.45;2.05;;;24.60;81.50;;;;;;4995973;28;20040;-69
2022/08/19 05:03:38;;;;;;;3.88;2.30;;;24.70;80.30;;;;;;4995658;28;20072;-71
2022/08/19 05:06:10;;;;;;;4.63;2.13;;;24.80;79.10;;;;;;4996430;28;20043;-69
2022/08/19 05:08:37;;;;;;;4.10;2.17;;;24.90;78.60;;;;;;4996328;28;20575;-69
2022/08/19 05:11:12;;;;;;;4.90;2.00;;;25.00;77.90;;;;;;4995148;28;20026;-69
2022/08/19 05:13:38;;;;;;;5.72;2.47;;;25.10;77.70;;;;;;4994246;28;20502;-72
2022/08/19 05:16:04;;;;;;;3.67;2.17;;;25.10;77.80;;;;;;4997392;28;20023;-69
2022/08/19 05:24:03;;;;;;;5.40;2.33;;;25.20;77.40;;;;;;4997794;28;20533;-69
2022/08/19 05:26:29;;;;;;;4.28;2.35;;;25.20;77.30;;;;;;4997904;28;20034;-69
2022/08/19 05:28:55;;;;;;;3.95;2.30;;;25.20;77.60;;;;;;4997454;28;20076;-69
2022/08/19 05:31:21;;;;;;;3.80;3.08;;;25.10;78.30;;;;;;4997344;28;20521;-69
2022/08/19 05:33:47;;;;;;;4.80;2.95;;;25.10;79.10;;;;;;4997302;28;20030;-69
2022/08/19 05:36:13;;;;;;;4.50;3.15;;;25.00;79.90;;;;;;4997498;28;20026;-69
2022/08/19 05:38:39;;;;;;;4.20;3.50;;;24.90;80.40;;;;;;4998060;28;20375;-72
2022/08/19 05:41:13;;;;;;;4.47;3.30;;;24.80;81.20;;;;;;4997332;28;20114;-69
2022/08/19 05:43:38;;;;;;;8.27;4.40;;;24.70;82.10;;;;;;4996602;28;20490;-69
2022/08/19 05:46:05;;;;;;;6.40;4.25;;;24.60;82.70;;;;;;4996298;28;20053;-69
2022/08/19 05:48:35;;;;;;;6.50;4.35;;;24.50;83.60;;;;;;4996338;28;20379;-68
2022/08/19 05:51:08;;;;;;;6.28;4.28;;;24.40;84.40;;;;;;4995976;28;20077;-68
2022/08/19 05:53:34;;;;;;;7.28;4.30;;;24.30;85.40;;;;;;4996620;28;20109;-68
2022/08/19 05:56:15;;;;;;;6.60;4.35;;;24.10;86.00;;;;;;4996161;28;20121;-68
2022/08/19 05:58:41;;;;;;;5.50;4.32;;;24.10;86.90;;;;;;4995974;28;20065;-71
2022/08/19 06:01:16;;;;;;;8.73;4.20;;;24.10;87.60;;;;;;4996476;28;20033;-68
2022/08/19 06:03:42;;;;;;;6.20;4.32;;;23.90;88.20;;;;;;4995931;28;20117;-69
2022/08/19 06:06:10;;;;;;;5.57;4.50;;;23.90;88.50;;;;;;4996669;28;20117;-68
2022/08/19 06:08:37;;;;;;;8.18;4.50;;;23.90;89.10;;;;;;4996085;28;20106;-68
2022/08/19 06:11:20;;;;;;;10.45;4.78;;;23.90;89.30;;;;;;4995692;28;20030;-69
2022/08/19 06:13:50;;;;;;;5.10;4.18;;;23.90;89.50;;;;;;5006305;28;20033;-70
2022/08/19 06:16:22;;;;;;;7.32;3.90;;;23.80;89.60;;;;;;5015864;28;20474;-69
2022/08/19 06:18:51;;;;;;;6.65;4.47;;;23.80;90.10;;;;;;5015341;28;20065;-70
2022/08/19 06:21:19;;;;;;;6.75;3.83;;;23.70;90.10;;;;;;5015196;28;20042;-70
2022/08/19 06:23:47;;;;;;;7.00;4.82;;;23.80;90.30;;;;;;5014775;28;20429;-72
2022/08/19 06:26:15;;;;;;;4.32;3.72;;;23.70;90.50;;;;;;5015324;28;20062;-70
2022/08/19 06:28:44;;;;;;;7.82;4.40;;;23.80;90.50;;;;;;5015360;28;20096;-69
2022/08/19 06:31:11;;;;;;;5.85;4.00;;;23.80;90.40;;;;;;5014793;28;20061;-69
2022/08/19 06:33:37;;;;;;;6.38;3.83;;;23.80;90.30;;;;;;5000104;28;20085;-69
2022/08/19 06:36:04;;;;;;;5.25;3.78;;;23.90;90.10;;;;;;4994776;28;20022;-69
2022/08/19 06:38:29;;;;;;;5.50;3.70;;;24.00;89.80;;;;;;4995474;28;20034;-69
2022/08/19 06:41:05;;;;;;;4.20;3.13;;;24.10;89.40;;;;;;4994979;28;20129;-69
2022/08/19 06:43:30;;;;;;;4.40;3.17;;;24.20;89.40;;;;;;4995460;28;20031;-69
2022/08/19 06:45:56;;;;;;;5.53;3.67;;;24.20;88.20;;;;;;4994902;28;20121;-69
2022/08/19 06:48:22;;;;;;;5.50;3.50;;;24.40;88.00;;;;;;4995415;28;20061;-69
2022/08/19 06:50:49;;;;;;;4.75;3.92;;;24.50;87.70;;;;;;4995086;28;20125;-70
2022/08/19 06:53:15;;;;;;;6.85;3.65;;;24.60;86.60;;;;;;4995446;28;20026;-68
2022/08/19 06:55:40;;;;;;;4.85;3.30;;;24.70;85.70;;;;;;4995418;28;20042;-68
2022/08/19 06:58:06;;;;;;;4.63;2.95;;;24.80;85.20;;;;;;4995228;28;20415;-69
2022/08/19 07:00:33;;;;;;;6.88;3.47;;;24.90;84.50;;;;;;4995212;28;20528;-70
2022/08/19 07:03:00;;;;;;;5.18;3.47;;;25.00;84.10;;;;;;4994573;28;20038;-69
2022/08/19 07:05:25;;;;;;;5.10;3.55;;;25.20;82.70;;;;;;4995097;28;20038;-69
2022/08/19 07:07:51;;;;;;;6.10;3.75;;;25.30;82.30;;;;;;4994574;28;20034;-69
2022/08/19 07:10:18;;;;;;;3.75;3.17;;;25.50;81.60;;;;;;4995061;28;20030;-69
2022/08/19 07:12:44;;;;;;;3.33;2.72;;;25.80;80.10;;;;;;4994944;28;20117;-69
2022/08/19 07:15:10;;;;;;;3.78;3.35;;;26.10;79.40;;;;;;4994622;28;20106;-69
2022/08/19 07:17:38;;;;;;;5.60;3.10;;;26.30;78.40;;;;;;4994928;28;20035;-69
2022/08/19 07:20:07;;;;;;;4.00;3.20;;;26.50;77.00;;;;;;4993963;28;20505;-69
2022/08/19 07:22:39;;;;;;;4.40;3.28;;;26.60;76.30;;;;;;4994693;28;20034;-69
2022/08/19 07:25:07;;;;;;;4.18;3.00;;;26.70;75.10;;;;;;4994436;28;20073;-68
2022/08/19 07:27:34;;;;;;;4.65;2.90;;;26.70;75.50;;;;;;4994710;28;20141;-69
2022/08/19 07:30:00;;;;;;;4.97;2.97;;;26.70;74.80;;;;;;4994317;28;20031;-69
2022/08/19 07:32:26;;;;;;;4.13;2.95;;;26.80;75.00;;;;;;4994641;28;20117;-69
2022/08/19 07:34:52;;;;;;;3.60;2.72;;;26.80;74.20;;;;;;4993877;28;20100;-70
2022/08/19 07:37:18;;;;;;;3.15;2.60;;;26.90;73.70;;;;;;4993983;28;20034;-69
2022/08/19 07:39:43;;;;;;;3.30;2.90;;;27.20;74.10;;;;;;4994176;28;20076;-69
2022/08/19 07:42:13;;;;;;;6.43;3.22;;;27.50;73.10;;;;;;4993773;28;20041;-69
2022/08/19 07:44:40;;;;;;;5.60;3.38;;;28.10;71.50;;;;;;4994333;28;20502;-69
2022/08/19 07:47:06;;;;;;;3.72;2.65;;;28.70;68.90;;;;;;4993750;28;20542;-69
2022/08/19 07:49:33;;;;;;;5.65;3.00;;;29.20;67.20;;;;;;4994267;28;20036;-69
2022/08/19 07:52:02;;;;;;;4.13;3.40;;;29.80;66.50;;;;;;4993613;28;20031;-69
2022/08/19 07:54:30;;;;;;;4.57;2.95;;;30.70;62.60;;;;;;4993653;28;20030;-69
2022/08/19 07:56:56;;;;;;;4.90;2.60;;;31.60;60.20;;;;;;4993794;28;20027;-69
2022/08/19 07:59:22;;;;;;;3.05;2.67;;;32.50;56.70;;;;;;4993893;28;20038;-69
2022/08/19 08:01:49;;;;;;;3.50;2.67;;;33.60;54.90;;;;;;4993892;28;20080;-69
2022/08/19 08:09:46;;;;;;;4.68;2.70;;;35.90;46.40;;;;;;4993889;28;20030;-68
2022/08/19 08:12:23;;;;;;;3.88;2.40;;;36.70;45.30;;;;;;4992906;28;20097;-68
2022/08/19 08:14:52;;;;;;;2.33;2.05;;;37.30;43.40;;;;;;4993504;28;20022;-69
2022/08/19 08:17:20;;;;;;;2.88;1.95;;;37.80;42.30;;;;;;4993762;28;20065;-69
2022/08/19 08:19:46;;;;;;;6.63;2.05;;;38.40;41.80;;;;;;4993544;28;20104;-69
2022/08/19 08:25:21;;;;;;;2.88;2.40;;;38.90;39.30;;;;;;4992865;28;20444;-69
2022/08/19 08:27:47;;;;;;;3.67;2.17;;;38.90;38.80;;;;;;4993314;28;20030;-69
2022/08/19 08:30:17;;;;;;;2.63;2.17;;;39.20;38.00;;;;;;4992781;28;20069;-69
2022/08/19 08:32:43;;;;;;;5.00;2.30;;;39.20;38.50;;;;;;4993138;28;20467;-69
2022/08/19 08:35:12;;;;;;;2.53;2.17;;;39.40;38.30;;;;;;4995142;28;20039;-69
2022/08/19 08:37:38;;;;;;;5.35;2.13;;;39.20;38.60;;;;;;4993183;28;20447;-68
2022/08/19 08:40:16;;;;;;;6.15;2.28;;;39.10;38.40;;;;;;4992798;28;20076;-68
2022/08/19 08:43:02;;;;;;;3.30;2.03;;;38.60;38.40;;;;;;4993107;28;20379;-68
2022/08/19 08:45:29;;;;;;;5.78;2.45;;;38.70;38.60;;;;;;4993276;28;20511;-68
2022/08/19 08:48:00;;;;;;;3.33;2.58;;;38.50;38.30;;;;;;4992924;28;20033;-70
2022/08/19 08:50:42;;;;;;;2.85;2.20;;;38.10;38.60;;;;;;4992226;28;20072;-68
2022/08/19 08:53:10;;;;;;;3.30;2.47;;;37.60;38.90;;;;;;4993116;28;20030;-68
2022/08/19 08:55:36;;;;;;;2.72;2.28;;;36.90;39.90;;;;;;4993066;28;20105;-68
2022/08/19 08:58:24;;;;;;;6.22;2.35;;;36.40;40.70;;;;;;4992630;28;20359;-68
2022/08/19 09:00:50;;;;;;;5.55;3.05;;;36.40;41.20;;;;;;4992878;28;20459;-68
2022/08/19 09:03:19;;;;;;;2.65;2.20;;;35.60;42.70;;;;;;4992403;28;20030;-68
2022/08/19 09:05:58;;;;;;;5.03;2.53;;;35.80;42.90;;;;;;4993094;28;20456;-68
2022/08/19 09:08:59;;;;;;;3.73;2.80;;;36.00;42.90;;;;;;4992886;28;20106;-68
2022/08/19 09:12:03;;;;;;;3.53;1.88;;;36.00;42.50;;;;;;4993012;28;20037;-69
2022/08/19 09:14:41;;;;;;;4.28;2.45;;;35.50;43.30;;;;;;4989050;28;20394;-68
2022/08/19 09:17:08;;;;;;;2.90;2.40;;;35.10;43.80;;;;;;4993474;28;20043;-68
2022/08/19 09:19:46;;;;;;;3.05;2.47;;;35.00;44.40;;;;;;4992794;28;20137;-68
2022/08/19 09:22:12;;;;;;;3.15;2.30;;;34.90;44.50;;;;;;4992621;28;20035;-68
2022/08/19 09:24:38;;;;;;;3.30;2.38;;;34.80;43.70;;;;;;4992792;28;20034;-69
2022/08/19 09:27:04;;;;;;;3.25;2.03;;;34.60;44.50;;;;;;4992519;28;20033;-69
2022/08/19 09:29:30;;;;;;;2.72;2.00;;;34.50;44.80;;;;;;4992750;28;20023;-69
2022/08/19 09:31:56;;;;;;;3.95;2.72;;;34.50;45.40;;;;;;4992810;28;20037;-69
2022/08/19 09:34:21;;;;;;;3.80;2.10;;;34.40;45.60;;;;;;4992265;28;20026;-69
2022/08/19 09:36:53;;;;;;;2.55;2.10;;;34.30;44.90;;;;;;4992629;28;20200;-69
2022/08/19 09:39:18;;;;;;;4.70;2.30;;;34.30;44.90;;;;;;4992414;28;20387;-69
2022/08/19 09:41:44;;;;;;;3.63;2.45;;;34.10;45.20;;;;;;4993088;28;20030;-69
2022/08/19 09:44:12;;;;;;;3.80;2.40;;;34.00;45.30;;;;;;4992322;28;20034;-68
2022/08/19 09:46:38;;;;;;;2.88;2.20;;;34.00;45.80;;;;;;4992556;28;20045;-69
2022/08/19 09:49:05;;;;;;;7.22;2.80;;;34.00;46.00;;;;;;4991930;28;20105;-69
2022/08/19 09:51:32;;;;;;;4.15;2.20;;;34.00;45.80;;;;;;4992434;28;20034;-69
2022/08/19 09:54:03;;;;;;;5.05;2.40;;;34.00;45.80;;;;;;4992280;28;20081;-69
2022/08/19 09:56:29;;;;;;;3.50;2.40;;;34.10;45.90;;;;;;4992560;28;20027;-69
2022/08/19 09:58:57;;;;;;;3.88;2.67;;;34.00;45.30;;;;;;4992491;28;20109;-69
2022/08/19 10:01:25;;;;;;;4.43;2.47;;;33.90;45.80;;;;;;4993801;28;20037;-69
2022/08/19 10:03:54;;;;;;;2.92;2.38;;;34.10;46.20;;;;;;4978445;28;20034;-69
2022/08/19 10:06:22;;;;;;;3.45;2.30;;;34.10;45.30;;;;;;4995486;28;20031;-69
2022/08/19 10:08:48;;;;;;;5.95;2.08;;;34.00;45.30;;;;;;4995787;28;20486;-69
2022/08/19 10:11:15;;;;;;;5.07;2.05;;;34.00;45.40;;;;;;4995267;28;20026;-69
2022/08/19 10:13:42;;;;;;;3.53;2.08;;;33.80;45.30;;;;;;4995736;28;20386;-69
2022/08/19 10:16:18;;;;;;;4.50;2.83;;;33.90;46.10;;;;;;4994803;28;20041;-69
2022/08/19 10:18:44;;;;;;;3.78;2.40;;;33.90;45.70;;;;;;4995671;28;20113;-68
2022/08/19 10:21:14;;;;;;;4.68;2.53;;;33.80;45.40;;;;;;4994631;28;20051;-68
2022/08/19 10:23:45;;;;;;;3.75;2.17;;;33.80;45.60;;;;;;5013648;28;20030;-68
2022/08/19 10:26:14;;;;;;;3.83;2.72;;;33.90;46.50;;;;;;5015114;28;20029;-69
2022/08/19 10:28:41;;;;;;;3.13;2.28;;;33.90;45.80;;;;;;5015538;28;20347;-68
2022/08/19 10:31:13;;;;;;;2.78;2.28;;;33.80;45.60;;;;;;5012386;28;20023;-69
2022/08/19 10:33:39;;;;;;;2.90;1.98;;;33.70;45.60;;;;;;4995576;28;20037;-69
2022/08/19 10:36:09;;;;;;;3.30;2.70;;;33.50;46.00;;;;;;4995003;28;20386;-68
2022/08/19 10:38:35;;;;;;;3.28;2.28;;;33.30;46.30;;;;;;4995576;28;20472;-68
2022/08/19 10:41:14;;;;;;;4.88;2.67;;;33.10;47.00;;;;;;4995541;28;20050;-68
2022/08/19 10:43:41;;;;;;;3.47;2.60;;;32.90;47.40;;;;;;4995228;28;20106;-68
2022/08/19 10:46:13;;;;;;;3.08;2.25;;;32.80;47.10;;;;;;4995136;28;20034;-69
2022/08/19 10:48:39;;;;;;;3.95;2.90;;;32.60;47.30;;;;;;4995330;28;20058;-69
2022/08/19 10:53:50;;;;;;;5.15;1.98;;;32.40;47.30;;;;;;4995288;28;20108;-69
2022/08/19 10:59:03;;;;;;;3.35;2.35;;;32.20;48.40;;;;;;4995215;28;20029;-69
2022/08/19 11:01:30;;;;;;;2.13;1.88;;;32.00;48.40;;;;;;4994654;28;20077;-69
2022/08/19 11:03:57;;;;;;;6.07;2.00;;;31.90;48.60;;;;;;4994668;28;20490;-69
2022/08/19 11:06:24;;;;;;;3.05;1.88;;;31.70;48.90;;;;;;4994658;28;20035;-69
2022/08/19 11:08:51;;;;;;;4.43;2.05;;;31.50;49.20;;;;;;4995069;28;20081;-69
2022/08/19 11:11:16;;;;;;;8.27;2.60;;;31.30;50.90;;;;;;4994302;28;20037;-69
2022/08/19 11:13:44;;;;;;;7.43;2.30;;;31.10;52.70;;;;;;4994250;28;20030;-69
2022/08/19 11:16:13;;;;;;;4.30;2.45;;;30.80;52.50;;;;;;4994320;28;20360;-70
2022/08/19 11:18:42;;;;;;;3.60;2.33;;;30.30;54.20;;;;;;4994646;28;20455;-68
2022/08/19 11:21:17;;;;;;;5.60;2.42;;;30.20;56.20;;;;;;4994363;28;20490;-69
2022/08/19 11:23:43;;;;;;;4.50;2.15;;;29.90;57.50;;;;;;4994280;28;20383;-68
2022/08/19 11:26:10;;;;;;;7.43;1.90;;;29.80;57.90;;;;;;4977099;28;20039;-69
2022/08/19 11:28:36;;;;;;;5.07;2.45;;;29.70;58.30;;;;;;4994592;28;20443;-69
2022/08/19 11:31:03;;;;;;;5.03;2.33;;;29.50;58.10;;;;;;4994541;28;20452;-68
2022/08/19 11:33:32;;;;;;;5.88;1.98;;;29.40;57.20;;;;;;4993940;28;20494;-68
2022/08/19 11:36:00;;;;;;;4.97;1.80;;;29.30;57.00;;;;;;4994394;28;20076;-68
2022/08/19 11:38:27;;;;;;;3.63;2.00;;;29.50;57.20;;;;;;4993824;28;20109;-70
2022/08/19 11:41:02;;;;;;;8.93;1.80;;;29.60;56.70;;;;;;4994205;28;20085;-70
2022/08/19 11:43:28;;;;;;;5.90;1.67;;;29.90;57.00;;;;;;4993685;28;20038;-70
2022/08/19 11:45:55;;;;;;;3.20;1.83;;;30.10;55.70;;;;;;4994430;28;20034;-69
2022/08/19 11:48:21;;;;;;;3.67;1.52;;;30.10;53.00;;;;;;4976279;28;20443;-70
2022/08/19 11:50:48;;;;;;;5.15;1.52;;;30.20;51.90;;;;;;4994232;28;20466;-69
2022/08/19 11:53:15;;;;;;;6.20;1.83;;;30.20;51.90;;;;;;4993732;28;20045;-69
2022/08/19 11:55:42;;;;;;;5.20;1.50;;;30.30;51.90;;;;;;4993784;28;20408;-69
2022/08/19 11:58:08;;;;;;;5.85;2.20;;;30.40;52.10;;;;;;4993655;28;20031;-70
2022/08/19 12:00:36;;;;;;;3.88;1.98;;;30.60;51.80;;;;;;4994014;28;20042;-68
2022/08/19 12:03:02;;;;;;;5.80;2.00;;;30.70;51.80;;;;;;4993942;28;20173;-69
2022/08/19 12:05:28;;;;;;;3.78;2.00;;;30.80;51.00;;;;;;4993674;28;20042;-69
2022/08/19 12:07:54;;;;;;;4.80;2.60;;;30.90;50.90;;;;;;4993852;28;20041;-68
2022/08/19 12:10:20;;;;;;;4.82;2.05;;;30.90;51.10;;;;;;4993433;28;20026;-68
2022/08/19 12:12:46;;;;;;;6.13;1.98;;;30.90;51.70;;;;;;4993936;28;20034;-68
2022/08/19 12:15:13;;;;;;;3.72;2.00;;;30.90;52.00;;;;;;5000030;28;20024;-68
2022/08/19 12:17:40;;;;;;;3.75;1.77;;;30.70;51.90;;;;;;5013312;28;20033;-68
2022/08/19 12:20:07;;;;;;;4.90;2.13;;;30.60;52.10;;;;;;5012950;28;20057;-68
2022/08/19 12:22:33;;;;;;;2.65;1.70;;;30.50;53.20;;;;;;5012979;28;20038;-68
2022/08/19 12:24:58;;;;;;;5.38;2.13;;;30.50;53.90;;;;;;5013006;28;20093;-69
2022/08/19 12:27:24;;;;;;;4.30;2.25;;;30.50;54.40;;;;;;5012513;28;20481;-69
2022/08/19 12:29:49;;;;;;;3.25;2.30;;;30.40;54.70;;;;;;5013034;28;20053;-69
2022/08/19 12:32:16;;;;;;;6.30;2.25;;;30.40;55.10;;;;;;5012394;28;20418;-70
2022/08/19 12:34:42;;;;;;;2.72;1.83;;;30.40;55.40;;;;;;5008102;28;20096;-69
2022/08/19 12:37:08;;;;;;;4.47;2.13;;;30.40;55.10;;;;;;4993563;28;20027;-69
2022/08/19 12:39:36;;;;;;;3.92;2.20;;;30.30;55.10;;;;;;4993093;28;20023;-69
2022/08/19 12:42:04;;;;;;;5.00;2.42;;;30.20;55.70;;;;;;4993406;28;20033;-68
2022/08/19 12:44:30;;;;;;;3.33;2.72;;;30.10;55.50;;;;;;4993330;28;20049;-68
2022/08/19 12:46:56;;;;;;;4.75;2.40;;;30.00;56.30;;;;;;4993386;28;20030;-69
2022/08/19 12:49:22;;;;;;;7.80;2.42;;;30.00;56.70;;;;;;4993854;28;20030;-68
2022/08/19 12:51:48;;;;;;;7.70;2.33;;;29.80;57.30;;;;;;4993731;28;20030;-68
2022/08/19 12:54:14;;;;;;;5.93;2.85;;;29.70;58.70;;;;;;4992752;28;20032;-69
2022/08/19 12:56:42;;;;;;;4.35;2.47;;;29.60;59.20;;;;;;4993323;28;20049;-69
2022/08/19 12:59:08;;;;;;;3.13;2.15;;;29.60;59.00;;;;;;4993011;28;20034;-69
2022/08/19 13:01:34;;;;;;;3.45;1.70;;;29.50;58.50;;;;;;4992696;28;20027;-70
2022/08/19 13:04:00;;;;;;;4.03;1.80;;;29.50;57.90;;;;;;4992732;28;20034;-69
2022/08/19 13:06:26;;;;;;;4.35;1.73;;;29.50;57.40;;;;;;4992748;28;20058;-70
2022/08/19 13:08:52;;;;;;;5.32;1.83;;;29.50;57.00;;;;;;4993189;28;20027;-69
2022/08/19 13:11:20;;;;;;;4.65;2.08;;;29.50;56.90;;;;;;4992154;28;20067;-68
2022/08/19 13:13:50;;;;;;;3.28;2.00;;;29.40;55.70;;;;;;4993078;28;20030;-69
2022/08/19 13:16:16;;;;;;;3.67;2.05;;;29.30;55.10;;;;;;4992469;28;20030;-70